createdAt,value
2022-12-19T00:00:53.592Z,59.31
2022-12-19T00:01:53.807Z,59.00
2022-12-19T00:02:53.802Z,58.69
2022-12-19T00:04:53.632Z,58.79
2022-12-19T00:05:57.240Z,58.94
2022-12-19T00:06:53.607Z,58.94
2022-12-19T00:07:53.601Z,58.93
2022-12-19T00:08:53.610Z,58.96
2022-12-19T00:09:53.612Z,59.01
2022-12-19T00:10:53.563Z,58.94
2022-12-19T00:11:53.621Z,58.88
2022-12-19T00:12:53.631Z,58.93
2022-12-19T00:13:53.616Z,58.94
2022-12-19T00:14:53.576Z,58.71
2022-12-19T00:15:53.696Z,58.79
2022-12-19T00:16:53.572Z,58.91
2022-12-19T00:17:53.660Z,58.89
2022-12-19T00:19:53.635Z,59.39
2022-12-19T00:21:53.607Z,59.13
2022-12-19T00:22:53.607Z,59.05
2022-12-19T00:23:53.606Z,59.20
2022-12-19T00:24:53.595Z,59.53
2022-12-19T00:25:53.692Z,59.65
2022-12-19T00:26:53.605Z,59.54
2022-12-19T00:27:53.606Z,59.45
2022-12-19T00:28:53.660Z,59.29
2022-12-19T00:29:53.628Z,59.09
2022-12-19T00:30:54.002Z,59.16
2022-12-19T00:31:53.738Z,59.16
2022-12-19T00:32:53.654Z,59.15
2022-12-19T00:33:53.656Z,59.17
2022-12-19T00:34:53.672Z,59.28
2022-12-19T00:35:53.682Z,58.90
2022-12-19T00:36:53.628Z,58.84
2022-12-19T00:37:53.677Z,58.92
2022-12-19T00:38:53.713Z,58.95
2022-12-19T00:42:57.492Z,59.23
2022-12-19T00:44:53.659Z,59.22
2022-12-19T00:45:53.764Z,59.06
2022-12-19T00:46:53.689Z,58.96
2022-12-19T00:47:53.688Z,58.95
2022-12-19T00:49:53.693Z,59.39
2022-12-19T00:50:53.697Z,59.32
2022-12-19T00:54:53.788Z,58.84
2022-12-19T00:55:53.714Z,58.90
2022-12-19T00:56:53.745Z,58.89
2022-12-19T00:57:53.717Z,59.08
2022-12-19T00:58:53.707Z,59.31
2022-12-19T00:59:53.787Z,59.87
2022-12-19T01:00:53.696Z,59.95
2022-12-19T01:01:53.846Z,59.95
2022-12-19T01:02:53.847Z,59.91
2022-12-19T01:04:26.516Z,59.79
2022-12-19T01:04:53.728Z,59.42
2022-12-19T01:05:53.708Z,59.42
2022-12-19T01:06:53.775Z,59.36
2022-12-19T01:07:53.690Z,59.34
2022-12-19T01:08:53.691Z,59.38
2022-12-19T01:10:53.704Z,59.04
2022-12-19T01:11:53.771Z,59.28
2022-12-19T01:12:53.711Z,59.28
2022-12-19T01:13:53.725Z,59.31
2022-12-19T01:14:53.760Z,59.34
2022-12-19T01:15:53.744Z,59.34
2022-12-19T01:16:53.830Z,59.04
2022-12-19T01:17:53.740Z,59.04
2022-12-19T01:18:53.750Z,59.06
2022-12-19T01:19:57.665Z,59.01
2022-12-19T01:20:53.724Z,59.01
2022-12-19T01:21:53.750Z,59.00
2022-12-19T01:22:53.785Z,58.94
2022-12-19T01:23:53.742Z,58.84
2022-12-19T01:24:53.810Z,58.94
2022-12-19T01:25:53.761Z,58.90
2022-12-19T01:27:53.807Z,58.88
2022-12-19T01:28:53.784Z,59.00
2022-12-19T01:30:53.788Z,59.06
2022-12-19T01:31:53.855Z,59.19
2022-12-19T01:32:53.879Z,59.17
2022-12-19T01:33:53.793Z,59.19
2022-12-19T01:34:53.844Z,59.18
2022-12-19T01:36:53.813Z,58.96
2022-12-19T01:37:54.844Z,58.98
2022-12-19T01:38:53.836Z,58.93
2022-12-19T01:39:53.835Z,58.73
2022-12-19T01:41:53.822Z,58.77
2022-12-19T01:42:53.851Z,58.71
2022-12-19T01:44:53.876Z,58.96
2022-12-19T01:45:53.886Z,58.96
2022-12-19T01:47:53.884Z,58.85
2022-12-19T01:48:53.804Z,58.96
2022-12-19T01:50:58.299Z,58.76
2022-12-19T01:51:53.825Z,58.76
2022-12-19T01:52:53.879Z,58.75
2022-12-19T01:53:53.844Z,58.75
2022-12-19T01:54:53.846Z,58.77
2022-12-19T01:55:53.903Z,58.79
2022-12-19T01:58:56.156Z,58.67
2022-12-19T01:59:53.811Z,58.72
2022-12-19T02:00:53.935Z,58.74
2022-12-19T02:01:53.967Z,58.74
2022-12-19T02:03:53.841Z,58.84
2022-12-19T02:04:53.805Z,58.86
2022-12-19T02:05:53.907Z,58.88
2022-12-19T02:07:53.858Z,58.91
2022-12-19T02:08:53.856Z,58.92
2022-12-19T02:09:56.857Z,58.92
2022-12-19T02:10:53.872Z,59.05
2022-12-19T02:11:53.836Z,59.05
2022-12-19T02:12:53.882Z,59.00
2022-12-19T02:13:53.840Z,58.99
2022-12-19T02:14:53.878Z,58.91
2022-12-19T02:15:53.908Z,58.88
2022-12-19T02:16:53.912Z,58.88
2022-12-19T02:17:53.922Z,58.64
2022-12-19T02:19:53.924Z,58.68
2022-12-19T02:21:54.716Z,58.70
2022-12-19T02:22:53.900Z,58.77
2022-12-19T02:23:53.903Z,58.81
2022-12-19T02:24:53.904Z,58.75
2022-12-19T02:26:53.883Z,58.88
2022-12-19T02:27:53.868Z,58.83
2022-12-19T02:28:53.911Z,58.98
2022-12-19T02:29:53.874Z,58.98
2022-12-19T02:30:53.925Z,58.93
2022-12-19T02:31:53.948Z,58.93
2022-12-19T02:32:53.927Z,58.71
2022-12-19T02:33:58.175Z,58.67
2022-12-19T02:34:53.920Z,58.67
2022-12-19T02:35:53.963Z,58.72
2022-12-19T02:36:53.914Z,58.56
2022-12-19T02:37:53.992Z,58.56
2022-12-19T02:39:53.952Z,58.65
2022-12-19T02:40:55.467Z,58.52
2022-12-19T02:42:53.955Z,58.45
2022-12-19T02:43:58.654Z,58.34
2022-12-19T02:44:53.972Z,58.33
2022-12-19T02:45:54.038Z,58.27
2022-12-19T02:48:54.014Z,58.32
2022-12-19T02:49:53.996Z,58.32
2022-12-19T02:50:53.993Z,58.13
2022-12-19T02:53:53.990Z,58.40
2022-12-19T02:54:53.991Z,58.27
2022-12-19T02:55:54.005Z,58.29
2022-12-19T02:57:53.973Z,58.04
2022-12-19T02:58:54.011Z,58.17
2022-12-19T03:00:54.005Z,58.13
2022-12-19T03:03:00.629Z,58.24
2022-12-19T03:03:54.013Z,58.16
2022-12-19T03:04:54.014Z,58.13
2022-12-19T03:05:53.987Z,58.00
2022-12-19T03:06:54.066Z,58.03
2022-12-19T03:07:53.996Z,58.03
2022-12-19T03:08:53.999Z,58.09
2022-12-19T03:09:54.065Z,58.26
2022-12-19T03:10:58.439Z,58.73
2022-12-19T03:11:54.076Z,58.73
2022-12-19T03:12:54.033Z,58.71
2022-12-19T03:14:54.089Z,59.10
2022-12-19T03:15:54.064Z,59.12
2022-12-19T03:16:54.168Z,59.62
2022-12-19T03:17:54.056Z,60.26
2022-12-19T03:19:54.085Z,60.40
2022-12-19T03:20:54.069Z,60.61
2022-12-19T03:21:54.124Z,60.42
2022-12-19T03:22:54.073Z,60.42
2022-12-19T03:23:54.074Z,60.32
2022-12-19T03:24:54.104Z,60.29
2022-12-19T03:25:54.079Z,60.10
2022-12-19T03:26:54.079Z,59.88
2022-12-19T03:27:54.103Z,59.66
2022-12-19T03:28:54.088Z,59.41
2022-12-19T03:29:54.114Z,59.22
2022-12-19T03:30:54.110Z,59.20
2022-12-19T03:31:54.086Z,59.14
2022-12-19T03:32:54.081Z,59.02
2022-12-19T03:33:54.110Z,58.72
2022-12-19T03:34:54.136Z,58.86
2022-12-19T03:35:54.097Z,58.80
2022-12-19T03:36:54.063Z,58.73
2022-12-19T03:37:54.107Z,58.84
2022-12-19T03:40:54.135Z,58.34
2022-12-19T03:41:54.129Z,58.57
2022-12-19T03:42:54.166Z,58.90
2022-12-19T03:43:54.127Z,58.82
2022-12-19T03:44:54.156Z,58.78
2022-12-19T03:45:54.246Z,58.80
2022-12-19T03:46:54.087Z,59.15
2022-12-19T03:47:58.669Z,59.06
2022-12-19T03:49:54.176Z,59.10
2022-12-19T03:50:54.148Z,59.10
2022-12-19T03:51:59.207Z,59.22
2022-12-19T03:52:54.177Z,59.26
2022-12-19T03:53:54.144Z,59.26
2022-12-19T03:54:54.181Z,59.46
2022-12-19T03:55:54.147Z,59.31
2022-12-19T03:56:54.162Z,59.54
2022-12-19T03:57:54.191Z,59.64
2022-12-19T03:59:54.203Z,59.92
2022-12-19T04:00:54.161Z,60.05
2022-12-19T04:01:54.327Z,60.18
2022-12-19T04:02:54.173Z,60.27
2022-12-19T04:03:54.232Z,60.21
2022-12-19T04:04:54.193Z,60.22
2022-12-19T04:05:54.179Z,60.00
2022-12-19T04:06:54.197Z,59.75
2022-12-19T04:07:54.239Z,59.80
2022-12-19T04:08:54.180Z,59.80
2022-12-19T04:09:54.189Z,59.68
2022-12-19T04:10:54.243Z,59.46
2022-12-19T04:11:54.196Z,59.55
2022-12-19T04:12:54.260Z,59.49
2022-12-19T04:13:54.163Z,59.49
2022-12-19T04:14:54.179Z,59.40
2022-12-19T04:15:54.330Z,59.65
2022-12-19T04:18:54.226Z,59.67
2022-12-19T04:19:54.179Z,59.70
2022-12-19T04:20:54.212Z,59.42
2022-12-19T04:23:54.246Z,59.34
2022-12-19T04:25:54.262Z,59.15
2022-12-19T04:29:54.205Z,59.51
2022-12-19T04:30:54.281Z,59.54
2022-12-19T04:31:54.207Z,59.39
2022-12-19T04:34:54.225Z,59.15
2022-12-19T04:35:54.295Z,59.27
2022-12-19T04:39:54.219Z,59.36
2022-12-19T04:40:54.259Z,59.48
2022-12-19T04:41:54.259Z,59.70
2022-12-19T04:42:54.257Z,59.49
2022-12-19T04:43:54.271Z,59.32
2022-12-19T04:44:54.244Z,59.32
2022-12-19T04:46:54.325Z,59.58
2022-12-19T04:47:54.258Z,59.49
2022-12-19T04:48:54.304Z,59.35
2022-12-19T04:49:54.262Z,59.52
2022-12-19T04:51:54.277Z,59.47
2022-12-19T04:52:57.101Z,59.56
2022-12-19T04:54:54.268Z,59.56
2022-12-19T04:55:54.267Z,59.55
2022-12-19T04:56:54.288Z,59.73
2022-12-19T04:57:54.327Z,59.76
2022-12-19T04:58:54.301Z,59.73
2022-12-19T04:59:54.266Z,59.77
2022-12-19T05:00:54.314Z,59.83
2022-12-19T05:03:55.760Z,59.79
2022-12-19T05:04:54.296Z,59.64
2022-12-19T05:08:54.332Z,59.66
2022-12-19T05:09:54.301Z,59.71
2022-12-19T05:10:54.344Z,59.62
2022-12-19T05:11:54.352Z,59.65
2022-12-19T05:12:54.350Z,59.65
2022-12-19T05:13:54.341Z,59.65
2022-12-19T05:14:54.320Z,59.69
2022-12-19T05:15:54.335Z,59.57
2022-12-19T05:17:54.320Z,59.44
2022-12-19T05:18:54.310Z,59.35
2022-12-19T05:19:54.322Z,59.33
2022-12-19T05:20:54.313Z,59.13
2022-12-19T05:21:54.361Z,58.86
2022-12-19T05:22:54.316Z,59.19
2022-12-19T05:23:54.330Z,59.55
2022-12-19T05:24:54.378Z,59.79
2022-12-19T05:25:54.350Z,59.56
2022-12-19T05:26:54.406Z,59.51
2022-12-19T05:28:54.355Z,59.53
2022-12-19T05:29:54.375Z,59.49
2022-12-19T05:31:54.425Z,59.45
2022-12-19T05:32:54.351Z,59.27
2022-12-19T05:34:54.401Z,59.53
2022-12-19T05:35:54.399Z,59.74
2022-12-19T05:36:54.393Z,59.59
2022-12-19T05:37:54.376Z,59.58
2022-12-19T05:38:59.276Z,59.47
2022-12-19T05:40:54.359Z,59.56
2022-12-19T05:41:54.402Z,59.56
2022-12-19T05:42:54.366Z,59.64
2022-12-19T05:43:54.425Z,59.59
2022-12-19T05:44:54.424Z,59.31
2022-12-19T05:45:54.428Z,59.31
2022-12-19T05:46:54.477Z,59.36
2022-12-19T05:47:58.642Z,59.00
2022-12-19T05:48:54.416Z,59.25
2022-12-19T05:49:54.465Z,59.11
2022-12-19T05:50:54.445Z,59.10
2022-12-19T05:51:54.431Z,59.42
2022-12-19T05:52:54.413Z,59.44
2022-12-19T05:53:54.391Z,59.44
2022-12-19T05:55:54.453Z,59.37
2022-12-19T05:56:54.443Z,59.47
2022-12-19T05:58:54.459Z,59.49
2022-12-19T05:59:54.456Z,59.39
2022-12-19T06:00:59.319Z,59.39
2022-12-19T06:02:54.594Z,59.65
2022-12-19T06:03:54.491Z,59.65
2022-12-19T06:05:54.437Z,59.15
2022-12-19T06:06:54.430Z,59.40
2022-12-19T06:07:54.551Z,59.30
2022-12-19T06:10:54.487Z,59.49
2022-12-19T06:11:54.488Z,59.72
2022-12-19T06:12:54.531Z,59.70
2022-12-19T06:13:54.490Z,59.70
2022-12-19T06:17:54.496Z,59.70
2022-12-19T06:18:54.455Z,59.63
2022-12-19T06:22:54.490Z,59.62
2022-12-19T06:23:54.461Z,59.68
2022-12-19T06:24:54.455Z,59.47
2022-12-19T06:25:54.501Z,59.42
2022-12-19T06:26:54.507Z,59.42
2022-12-19T06:27:54.465Z,59.28
2022-12-19T06:28:54.527Z,59.12
2022-12-19T06:29:54.512Z,59.30
2022-12-19T06:30:54.570Z,59.39
2022-12-19T06:31:54.552Z,59.35
2022-12-19T06:35:04.005Z,59.53
2022-12-19T06:35:54.560Z,59.43
2022-12-19T06:38:54.588Z,59.62
2022-12-19T06:40:54.571Z,59.70
2022-12-19T06:41:54.566Z,59.52
2022-12-19T06:42:54.508Z,59.46
2022-12-19T06:43:54.544Z,59.46
2022-12-19T06:44:55.952Z,59.30
2022-12-19T06:45:54.633Z,59.41
2022-12-19T06:46:54.521Z,59.46
2022-12-19T06:47:54.540Z,59.07
2022-12-19T06:48:54.601Z,59.09
2022-12-19T06:49:54.745Z,59.15
2022-12-19T06:50:54.547Z,59.15
2022-12-19T06:52:54.579Z,59.62
2022-12-19T06:54:54.557Z,59.52
2022-12-19T06:55:54.539Z,59.75
2022-12-19T06:56:54.557Z,59.76
2022-12-19T06:57:54.529Z,59.65
2022-12-19T06:58:54.583Z,59.44
2022-12-19T06:59:54.576Z,59.40
2022-12-19T07:00:54.630Z,59.21
2022-12-19T07:01:54.779Z,60.04
2022-12-19T07:03:54.606Z,60.29
2022-12-19T07:04:54.627Z,60.45
2022-12-19T07:05:54.563Z,60.26
2022-12-19T07:06:54.625Z,60.01
2022-12-19T07:07:54.677Z,59.96
2022-12-19T07:09:54.658Z,59.80
2022-12-19T07:10:54.760Z,59.54
2022-12-19T07:11:54.678Z,59.71
2022-12-19T07:12:54.594Z,59.71
2022-12-19T07:13:54.614Z,59.72
2022-12-19T07:14:54.615Z,59.72
2022-12-19T07:15:54.624Z,59.71
2022-12-19T07:17:54.632Z,59.88
2022-12-19T07:18:54.588Z,59.82
2022-12-19T07:20:54.635Z,59.88
2022-12-19T07:21:54.648Z,59.88
2022-12-19T07:22:54.613Z,59.89
2022-12-19T07:23:54.591Z,59.78
2022-12-19T07:25:54.639Z,59.77
2022-12-19T07:26:55.086Z,59.69
2022-12-19T07:27:54.679Z,59.69
2022-12-19T07:28:54.647Z,59.83
2022-12-19T07:29:54.716Z,59.77
2022-12-19T07:30:54.627Z,59.77
2022-12-19T07:31:54.719Z,59.69
2022-12-19T07:32:54.670Z,59.54
2022-12-19T07:33:54.664Z,59.26
2022-12-19T07:34:54.661Z,59.34
2022-12-19T07:36:54.669Z,59.42
2022-12-19T07:38:54.899Z,59.26
2022-12-19T07:39:54.710Z,59.12
2022-12-19T07:40:54.690Z,59.22
2022-12-19T07:41:54.668Z,59.35
2022-12-19T07:43:54.695Z,59.27
2022-12-19T07:45:54.723Z,58.98
2022-12-19T07:46:54.658Z,59.27
2022-12-19T07:47:54.734Z,59.23
2022-12-19T07:48:54.658Z,59.23
2022-12-19T07:49:54.704Z,59.09
2022-12-19T07:50:54.669Z,59.24
2022-12-19T07:51:54.895Z,58.73
2022-12-19T07:52:54.731Z,59.06
2022-12-19T07:53:54.723Z,59.30
2022-12-19T07:54:54.686Z,59.24
2022-12-19T07:55:54.723Z,59.17
2022-12-19T07:56:54.728Z,59.23
2022-12-19T07:58:54.809Z,58.62
2022-12-19T07:59:54.704Z,58.66
2022-12-19T08:00:54.858Z,58.49
2022-12-19T08:01:54.866Z,58.49
2022-12-19T08:03:55.437Z,58.58
2022-12-19T08:04:54.739Z,58.58
2022-12-19T08:05:54.759Z,58.53
2022-12-19T08:06:54.760Z,58.53
2022-12-19T08:07:54.706Z,58.54
2022-12-19T08:08:54.734Z,58.46
2022-12-19T08:09:54.790Z,58.31
2022-12-19T08:10:54.779Z,58.19
2022-12-19T08:11:54.767Z,58.14
2022-12-19T08:12:54.739Z,57.71
2022-12-19T08:13:54.799Z,57.94
2022-12-19T08:14:57.322Z,57.93
2022-12-19T08:15:55.935Z,57.82
2022-12-19T08:17:19.721Z,57.82
2022-12-19T08:17:54.777Z,57.84
2022-12-19T08:18:54.794Z,57.68
2022-12-19T08:19:54.776Z,57.56
2022-12-19T08:20:54.787Z,57.21
2022-12-19T08:21:54.789Z,57.21
2022-12-19T08:22:54.742Z,57.07
2022-12-19T08:23:54.785Z,57.08
2022-12-19T08:24:54.738Z,57.17
2022-12-19T08:25:54.796Z,57.07
2022-12-19T08:26:54.785Z,57.07
2022-12-19T08:27:54.865Z,57.07
2022-12-19T08:28:54.793Z,56.99
2022-12-19T08:29:54.798Z,56.96
2022-12-19T08:30:54.894Z,56.95
2022-12-19T08:31:54.815Z,56.67
2022-12-19T08:32:54.814Z,56.67
2022-12-19T08:33:54.980Z,56.48
2022-12-19T08:34:54.827Z,56.26
2022-12-19T08:35:54.819Z,56.03
2022-12-19T08:36:54.821Z,55.81
2022-12-19T08:37:54.798Z,55.81
2022-12-19T08:38:54.871Z,55.66
2022-12-19T08:39:55.694Z,55.66
2022-12-19T08:40:55.522Z,55.58
2022-12-19T08:41:54.834Z,55.58
2022-12-19T08:42:54.817Z,55.47
2022-12-19T08:43:54.822Z,55.23
2022-12-19T08:44:54.804Z,54.88
2022-12-19T08:45:54.963Z,54.79
2022-12-19T08:46:54.830Z,54.63
2022-12-19T08:47:54.796Z,54.71
2022-12-19T08:48:54.803Z,54.33
2022-12-19T08:49:54.809Z,54.60
2022-12-19T08:50:54.859Z,53.91
2022-12-19T08:51:54.921Z,53.99
2022-12-19T08:52:54.853Z,53.99
2022-12-19T08:53:54.847Z,53.52
2022-12-19T08:54:54.854Z,53.41
2022-12-19T08:55:54.871Z,53.35
2022-12-19T08:56:54.864Z,52.91
2022-12-19T08:57:54.998Z,52.89
2022-12-19T08:58:54.836Z,52.71
2022-12-19T08:59:54.922Z,51.95
2022-12-19T09:00:58.931Z,51.95
2022-12-19T09:01:54.995Z,51.62
2022-12-19T09:02:55.151Z,51.11
2022-12-19T09:04:42.695Z,51.11
2022-12-19T09:06:00.335Z,51.02
2022-12-19T09:06:03.215Z,51.15
2022-12-19T09:06:54.843Z,51.07
2022-12-19T09:07:54.887Z,50.78
2022-12-19T09:08:54.910Z,50.74
2022-12-19T09:09:54.931Z,50.75
2022-12-19T09:10:54.892Z,50.78
2022-12-19T09:11:54.892Z,50.44
2022-12-19T09:12:56.230Z,49.53
2022-12-19T09:13:54.881Z,49.53
2022-12-19T09:14:54.891Z,48.64
2022-12-19T09:15:54.921Z,48.63
2022-12-19T09:16:54.961Z,48.63
2022-12-19T09:17:55.766Z,49.00
2022-12-19T09:18:54.941Z,49.00
2022-12-19T09:19:54.865Z,49.26
2022-12-19T09:20:54.928Z,49.40
2022-12-19T09:21:54.890Z,49.95
2022-12-19T09:22:54.926Z,50.18
2022-12-19T09:23:54.948Z,50.47
2022-12-19T09:24:54.898Z,50.81
2022-12-19T09:25:54.981Z,51.04
2022-12-19T09:26:54.948Z,51.04
2022-12-19T09:28:26.287Z,51.47
2022-12-19T09:28:54.912Z,51.75
2022-12-19T09:29:54.921Z,51.91
2022-12-19T09:30:55.082Z,52.13
2022-12-19T09:31:56.235Z,52.19
2022-12-19T09:32:54.953Z,52.66
2022-12-19T09:33:54.943Z,52.66
2022-12-19T09:34:54.932Z,52.74
2022-12-19T09:35:55.466Z,52.90
2022-12-19T09:36:54.961Z,53.24
2022-12-19T09:37:59.885Z,53.31
2022-12-19T09:38:54.994Z,53.63
2022-12-19T09:40:54.968Z,53.90
2022-12-19T09:41:55.123Z,53.90
2022-12-19T09:42:54.966Z,53.94
2022-12-19T09:43:54.948Z,53.55
2022-12-19T09:44:54.936Z,53.95
2022-12-19T09:45:55.165Z,54.55
2022-12-19T09:46:54.963Z,54.55
2022-12-19T09:47:54.995Z,54.58
2022-12-19T09:48:55.409Z,54.38
2022-12-19T09:49:54.963Z,54.66
2022-12-19T09:50:54.985Z,54.76
2022-12-19T09:51:54.973Z,54.65
2022-12-19T09:52:54.998Z,54.70
2022-12-19T09:53:55.859Z,54.63
2022-12-19T09:54:55.990Z,54.50
2022-12-19T09:55:55.036Z,54.50
2022-12-19T09:56:54.977Z,54.28
2022-12-19T09:57:54.962Z,54.06
2022-12-19T09:58:55.040Z,53.80
2022-12-19T09:59:55.031Z,53.50
2022-12-19T10:00:57.837Z,51.93
2022-12-19T10:01:55.126Z,51.93
2022-12-19T10:02:55.118Z,50.76
2022-12-19T10:03:55.048Z,49.33
2022-12-19T10:04:59.293Z,47.53
2022-12-19T10:06:36.720Z,44.22
2022-12-19T10:07:18.303Z,44.22
2022-12-19T10:08:08.443Z,42.86
2022-12-19T10:09:46.925Z,42.42
2022-12-19T10:12:36.133Z,44.15
2022-12-19T10:12:40.719Z,42.85
2022-12-19T10:12:47.926Z,44.15
2022-12-19T10:12:59.276Z,44.72
2022-12-19T10:13:55.077Z,45.27
2022-12-19T10:14:55.065Z,45.88
2022-12-19T10:15:58.969Z,45.96
2022-12-19T10:17:22.589Z,46.08
2022-12-19T10:17:55.084Z,46.47
2022-12-19T10:18:56.780Z,46.83
2022-12-19T10:19:55.027Z,46.74
2022-12-19T10:20:55.041Z,46.84
2022-12-19T10:22:17.039Z,46.98
2022-12-19T10:22:55.029Z,46.98
2022-12-19T10:23:55.125Z,47.10
2022-12-19T10:25:02.825Z,47.10
2022-12-19T10:25:55.085Z,47.31
2022-12-19T10:26:55.116Z,47.43
2022-12-19T10:27:58.752Z,47.71
2022-12-19T10:28:55.112Z,47.59
2022-12-19T10:29:55.178Z,47.86
2022-12-19T10:30:55.137Z,47.91
2022-12-19T10:31:56.325Z,48.38
2022-12-19T10:32:55.078Z,48.38
2022-12-19T10:33:55.115Z,48.69
2022-12-19T10:34:55.104Z,48.59
2022-12-19T10:35:55.118Z,48.82
2022-12-19T10:37:27.531Z,48.97
2022-12-19T10:37:55.064Z,48.90
2022-12-19T10:38:55.136Z,48.89
2022-12-19T10:39:55.159Z,48.79
2022-12-19T10:41:55.160Z,48.83
2022-12-19T10:42:55.148Z,48.84
2022-12-19T10:43:55.160Z,48.76
2022-12-19T10:44:55.133Z,48.86
2022-12-19T10:45:55.161Z,48.80
2022-12-19T10:46:55.197Z,48.92
2022-12-19T10:47:55.183Z,48.97
2022-12-19T10:49:55.127Z,48.77
2022-12-19T10:50:55.158Z,48.73
2022-12-19T10:51:55.179Z,48.62
2022-12-19T10:52:55.168Z,49.02
2022-12-19T10:53:55.246Z,48.96
2022-12-19T10:54:55.174Z,48.99
2022-12-19T10:55:55.151Z,49.16
2022-12-19T10:56:55.194Z,49.09
2022-12-19T10:57:55.154Z,48.81
2022-12-19T10:58:55.204Z,48.91
2022-12-19T10:59:55.171Z,49.10
2022-12-19T11:00:55.162Z,49.34
2022-12-19T11:02:00.780Z,49.73
2022-12-19T11:02:55.295Z,49.73
2022-12-19T11:03:55.197Z,50.62
2022-12-19T11:06:55.228Z,50.53
2022-12-19T11:07:55.187Z,50.53
2022-12-19T11:08:56.482Z,50.62
2022-12-19T11:10:06.507Z,50.62
2022-12-19T11:17:33.382Z,51.22
2022-12-19T11:18:06.013Z,51.34
2022-12-19T11:19:23.047Z,51.09
2022-12-19T11:24:21.281Z,51.16
2022-12-19T11:27:51.235Z,51.39
2022-12-19T11:29:25.720Z,51.39
2022-12-19T11:29:41.739Z,51.38
2022-12-19T11:30:05.167Z,51.43
2022-12-19T11:30:05.880Z,51.54
2022-12-19T11:30:09.323Z,51.38
2022-12-19T11:30:44.318Z,51.96
2022-12-19T11:30:47.661Z,51.52
2022-12-19T11:30:59.588Z,51.44
2022-12-19T11:32:10.316Z,52.22
2022-12-19T11:32:35.889Z,52.57
2022-12-19T11:32:55.284Z,52.57
2022-12-19T11:35:55.237Z,52.63
2022-12-19T11:38:55.216Z,53.06
2022-12-19T11:39:55.309Z,53.38
2022-12-19T11:40:55.239Z,53.38
2022-12-19T11:41:55.389Z,53.52
2022-12-19T11:43:55.238Z,53.36
2022-12-19T11:44:55.284Z,53.54
2022-12-19T11:45:56.653Z,53.35
2022-12-19T11:46:55.228Z,53.35
2022-12-19T11:47:55.357Z,53.59
2022-12-19T11:48:55.289Z,53.82
2022-12-19T11:49:55.305Z,53.78
2022-12-19T11:50:55.280Z,53.83
2022-12-19T11:51:55.294Z,53.83
2022-12-19T11:53:04.852Z,53.66
2022-12-19T11:53:55.269Z,53.72
2022-12-19T11:54:55.301Z,53.68
2022-12-19T11:55:55.252Z,53.68
2022-12-19T11:56:55.253Z,53.64
2022-12-19T11:57:55.308Z,53.63
2022-12-19T11:58:55.256Z,53.63
2022-12-19T11:59:59.828Z,53.60
2022-12-19T12:01:55.362Z,53.14
2022-12-19T12:02:55.456Z,53.17
2022-12-19T12:05:55.558Z,53.04
2022-12-19T12:06:55.360Z,53.04
2022-12-19T12:09:18.298Z,52.95
2022-12-19T12:12:04.542Z,52.91
2022-12-19T12:14:20.663Z,52.88
2022-12-19T12:19:39.306Z,52.98
2022-12-19T12:20:10.249Z,53.13
2022-12-19T12:22:20.122Z,53.50
2022-12-19T12:22:58.924Z,53.39
2022-12-19T12:31:07.949Z,53.26
2022-12-19T12:31:09.792Z,52.76
2022-12-19T12:31:12.430Z,52.79
2022-12-19T12:31:19.067Z,53.09
2022-12-19T12:31:19.292Z,52.81
2022-12-19T12:31:22.236Z,52.81
2022-12-19T12:31:31.629Z,53.26
2022-12-19T12:31:40.620Z,52.85
2022-12-19T12:31:42.403Z,52.90
2022-12-19T12:31:45.377Z,52.61
2022-12-19T12:31:49.683Z,53.17
2022-12-19T12:31:50.444Z,52.43
2022-12-19T12:31:57.752Z,52.51
2022-12-19T12:32:04.003Z,52.85
2022-12-19T12:35:43.571Z,53.51
2022-12-19T12:35:46.390Z,53.13
2022-12-19T12:35:56.311Z,53.51
2022-12-19T12:35:56.479Z,53.13
2022-12-19T12:37:52.533Z,53.48
2022-12-19T12:38:22.786Z,53.93
2022-12-19T12:39:55.405Z,54.07
2022-12-19T12:40:55.393Z,54.40
2022-12-19T12:41:55.747Z,54.36
2022-12-19T12:42:55.416Z,54.19
2022-12-19T12:43:55.428Z,54.16
2022-12-19T12:44:55.403Z,54.25
2022-12-19T12:45:55.472Z,53.82
2022-12-19T12:48:55.466Z,54.06
2022-12-19T12:49:55.470Z,53.99
2022-12-19T12:50:55.600Z,54.20
2022-12-19T12:51:55.457Z,54.14
2022-12-19T12:52:55.432Z,54.14
2022-12-19T12:53:55.385Z,54.10
2022-12-19T12:54:55.471Z,53.89
2022-12-19T12:55:55.445Z,53.89
2022-12-19T12:56:55.543Z,53.92
2022-12-19T12:57:55.445Z,53.99
2022-12-19T12:58:55.397Z,54.52
2022-12-19T12:59:57.324Z,55.30
2022-12-19T13:00:55.476Z,55.30
2022-12-19T13:01:55.716Z,55.02
2022-12-19T13:02:55.555Z,54.97
2022-12-19T13:03:55.482Z,55.33
2022-12-19T13:04:55.500Z,55.28
2022-12-19T13:05:55.456Z,55.28
2022-12-19T13:06:55.422Z,55.06
2022-12-19T13:07:55.510Z,54.83
2022-12-19T13:08:55.483Z,54.97
2022-12-19T13:09:55.520Z,54.75
2022-12-19T13:11:55.498Z,54.79
2022-12-19T13:12:55.495Z,54.76
2022-12-19T13:13:55.545Z,54.69
2022-12-19T13:14:55.475Z,55.03
2022-12-19T13:15:55.505Z,55.18
2022-12-19T13:16:55.559Z,55.36
2022-12-19T13:17:55.549Z,55.46
2022-12-19T13:19:55.505Z,55.82
2022-12-19T13:20:55.494Z,55.83
2022-12-19T13:21:55.453Z,55.83
2022-12-19T13:22:55.541Z,55.42
2022-12-19T13:23:55.535Z,55.42
2022-12-19T13:24:55.512Z,55.34
2022-12-19T13:25:55.558Z,55.38
2022-12-19T13:27:55.477Z,55.54
2022-12-19T13:28:55.519Z,55.42
2022-12-19T13:29:55.579Z,55.36
2022-12-19T13:31:19.481Z,55.40
2022-12-19T13:31:55.556Z,55.51
2022-12-19T13:33:56.032Z,55.97
2022-12-19T13:39:52.181Z,55.56
2022-12-19T13:39:57.711Z,55.58
2022-12-19T13:40:55.545Z,55.63
2022-12-19T13:41:55.511Z,56.00
2022-12-19T13:42:59.451Z,55.49
2022-12-19T13:43:55.553Z,55.53
2022-12-19T13:44:55.549Z,55.53
2022-12-19T13:46:55.539Z,55.91
2022-12-19T13:49:55.585Z,56.10
2022-12-19T13:51:57.058Z,56.41
2022-12-19T13:54:55.568Z,56.62
2022-12-19T13:55:55.586Z,56.72
2022-12-19T13:56:55.626Z,56.81
2022-12-19T13:57:55.578Z,56.32
2022-12-19T13:58:55.623Z,56.32
2022-12-19T14:00:00.176Z,56.02
2022-12-19T14:00:55.569Z,56.08
2022-12-19T14:02:55.770Z,55.90
2022-12-19T14:03:55.730Z,55.99
2022-12-19T14:06:16.850Z,55.62
2022-12-19T14:06:55.653Z,56.11
2022-12-19T14:09:58.665Z,55.68
2022-12-19T14:11:54.162Z,55.68
2022-12-19T14:12:27.468Z,55.91
2022-12-19T14:13:44.559Z,55.44
2022-12-19T14:14:06.412Z,55.55
2022-12-19T14:15:55.665Z,55.58
2022-12-19T14:16:55.649Z,55.52
2022-12-19T14:17:55.596Z,55.52
2022-12-19T14:18:55.640Z,55.95
2022-12-19T14:20:28.682Z,55.95
2022-12-19T14:22:03.798Z,55.74
2022-12-19T14:22:10.257Z,55.78
2022-12-19T14:28:20.372Z,55.94
2022-12-19T14:28:25.684Z,55.99
2022-12-19T14:28:55.642Z,56.02
2022-12-19T14:30:30.006Z,56.04
2022-12-19T14:33:47.424Z,56.11
2022-12-19T14:36:07.778Z,56.17
2022-12-19T14:36:09.057Z,56.17
2022-12-19T14:36:55.719Z,56.25
2022-12-19T14:39:23.615Z,56.17
2022-12-19T14:39:55.730Z,56.38
2022-12-19T14:41:07.609Z,56.38
2022-12-19T14:42:00.671Z,56.31
2022-12-19T14:43:59.599Z,56.31
2022-12-19T14:49:30.974Z,56.54
2022-12-19T14:52:35.007Z,57.64
2022-12-19T14:52:35.073Z,57.76
2022-12-19T14:52:35.815Z,57.64
2022-12-19T14:54:00.529Z,57.98
2022-12-19T14:54:06.400Z,56.89
2022-12-19T14:54:11.537Z,57.86
2022-12-19T14:54:20.956Z,57.31
2022-12-19T14:54:21.604Z,57.47
2022-12-19T14:54:40.195Z,57.47
2022-12-19T14:54:40.197Z,57.31
2022-12-19T14:56:03.923Z,57.68
2022-12-19T14:56:17.752Z,57.44
2022-12-19T14:56:59.911Z,59.48
2022-12-19T14:58:51.494Z,59.48
2022-12-19T14:58:57.126Z,60.59
2022-12-19T14:59:55.778Z,61.76
2022-12-19T15:01:09.984Z,61.76
2022-12-19T15:01:55.933Z,61.86
2022-12-19T15:02:55.953Z,61.54
2022-12-19T15:04:52.154Z,61.44
2022-12-19T15:04:56.046Z,61.39
2022-12-19T15:05:55.749Z,61.05
2022-12-19T15:07:10.859Z,61.04
2022-12-19T15:07:55.771Z,60.72
2022-12-19T15:10:58.134Z,60.70
2022-12-19T15:11:03.271Z,60.77
2022-12-19T15:11:05.358Z,60.77
2022-12-19T15:12:04.441Z,60.81
2022-12-19T15:14:48.943Z,62.84
2022-12-19T15:14:55.377Z,62.84
2022-12-19T15:14:59.002Z,62.38
2022-12-19T15:15:55.817Z,62.38
2022-12-19T15:16:55.749Z,62.11
2022-12-19T15:17:55.816Z,62.00
2022-12-19T15:18:55.785Z,61.54
2022-12-19T15:19:55.845Z,61.16
2022-12-19T15:20:55.765Z,60.92
2022-12-19T15:21:55.760Z,60.72
2022-12-19T15:22:55.823Z,60.24
2022-12-19T15:23:55.819Z,59.98